Time;durP1;ratioP1;P1;durP2;ratioP2;P2;SDS_P1;SDS_P2;PMS_P1;PMS_P2;Temp;Humidity;BMP_temperature;BMP_pressure;BME280_temperature;BME280_humidity;BME280_pressure;Samples;Min_cycle;Max_cycle;Signal;HPM_P1;HPM_P2
2024/02/25 00:00:56;;;;;;;5.53;3.20;;;;;;;12.49;54.58;93861.50;5061713;28;20173;-78
2024/02/25 00:03:21;;;;;;;6.50;3.13;;;;;;;12.45;54.83;93866.69;5063124;28;20029;-78
2024/02/25 00:05:47;;;;;;;6.05;3.08;;;;;;;12.52;55.13;93863.53;5061824;28;20013;-78
2024/02/25 00:08:12;;;;;;;10.73;2.90;;;;;;;12.59;54.68;93869.13;5061903;28;20071;-78
2024/02/25 00:10:38;;;;;;;9.35;3.00;;;;;;;12.61;54.36;93848.19;5062971;28;20020;-78
2024/02/25 00:13:03;;;;;;;5.38;2.30;;;;;;;12.68;53.63;93844.22;5062965;28;20017;-78
2024/02/25 00:15:29;;;;;;;5.30;2.58;;;;;;;12.74;52.54;93849.06;5062790;28;20303;-78
2024/02/25 00:17:54;;;;;;;7.05;2.22;;;;;;;12.72;52.00;93856.63;5062980;28;20021;-78
2024/02/25 00:20:20;;;;;;;4.57;2.10;;;;;;;12.81;51.78;93865.38;5062968;28;20040;-78
2024/02/25 00:22:45;;;;;;;6.82;2.22;;;;;;;12.88;51.81;93853.34;5062014;28;20028;-78
2024/02/25 00:25:10;;;;;;;7.40;2.28;;;;;;;12.88;52.17;93862.16;5063054;28;20339;-77
2024/02/25 00:27:36;;;;;;;5.50;2.80;;;;;;;12.94;51.96;93868.09;5062930;28;20044;-77
2024/02/25 00:30:01;;;;;;;8.85;3.05;;;;;;;12.98;51.96;93869.00;5062658;28;20342;-79
2024/02/25 00:32:27;;;;;;;6.57;2.85;;;;;;;13.00;51.98;93872.91;5062894;28;20029;-78
2024/02/25 00:34:53;;;;;;;6.85;2.97;;;;;;;13.04;51.78;93873.81;5062572;28;20046;-79
2024/02/25 00:37:19;;;;;;;5.38;2.42;;;;;;;13.08;51.54;93867.84;5062862;28;20033;-78
2024/02/25 00:39:44;;;;;;;6.43;2.30;;;;;;;13.08;51.23;93860.59;5062581;28;20039;-78
2024/02/25 00:42:10;;;;;;;6.55;2.15;;;;;;;13.07;51.52;93876.97;5062767;28;20395;-78
2024/02/25 00:44:36;;;;;;;5.78;2.40;;;;;;;13.11;51.14;93867.16;5063139;28;20096;-78
2024/02/25 00:47:02;;;;;;;4.22;2.13;;;;;;;13.11;51.37;93881.34;5066178;28;20087;-77
2024/02/25 00:49:27;;;;;;;5.07;2.90;;;;;;;13.14;51.29;93877.22;5065370;28;20036;-78
2024/02/25 00:51:53;;;;;;;9.65;2.70;;;;;;;13.14;51.18;93877.22;5065797;28;20021;-78
2024/02/25 00:54:19;;;;;;;3.22;1.90;;;;;;;13.15;51.03;93894.88;5065853;28;20068;-78
2024/02/25 00:56:47;;;;;;;3.95;2.20;;;;;;;13.12;51.12;93892.81;5066098;28;20235;-78
2024/02/25 00:59:13;;;;;;;4.60;2.10;;;;;;;13.10;51.39;93887.03;5066426;28;20231;-78
2024/02/25 01:01:39;;;;;;;6.25;2.13;;;;;;;13.07;51.22;93888.47;5066222;28;20036;-78
2024/02/25 01:04:04;;;;;;;5.72;2.28;;;;;;;13.08;51.13;93887.34;5066563;28;20092;-78
2024/02/25 01:06:30;;;;;;;8.15;2.42;;;;;;;12.97;51.13;93886.97;5066301;28;20032;-78
2024/02/25 01:08:55;;;;;;;3.78;1.80;;;;;;;12.94;51.02;93887.59;5066080;28;20231;-77
2024/02/25 01:11:20;;;;;;;4.90;1.80;;;;;;;12.99;50.50;93890.09;5066186;28;20044;-78
2024/02/25 01:13:47;;;;;;;4.43;1.52;;;;;;;12.67;50.97;93890.81;5066543;28;20112;-78
2024/02/25 01:16:12;;;;;;;2.40;1.45;;;;;;;12.80;50.82;93895.09;5066465;28;20032;-78
2024/02/25 01:18:38;;;;;;;3.20;1.90;;;;;;;12.92;50.38;93892.50;5066399;28;20063;-78
2024/02/25 01:21:04;;;;;;;3.92;2.22;;;;;;;13.00;50.53;93905.03;5065658;28;20030;-78
2024/02/25 01:23:29;;;;;;;5.22;2.20;;;;;;;13.00;50.45;93894.31;5066413;28;20052;-78
2024/02/25 01:25:54;;;;;;;8.88;2.20;;;;;;;13.02;50.62;93897.47;5066664;28;20036;-78
2024/02/25 01:28:20;;;;;;;3.78;1.98;;;;;;;13.06;50.44;93900.25;5066353;28;20013;-78
2024/02/25 01:30:47;;;;;;;3.75;1.90;;;;;;;13.12;49.99;93895.50;5066526;28;20017;-77
2024/02/25 01:33:13;;;;;;;4.97;1.90;;;;;;;13.15;49.83;93878.81;5065764;28;20017;-78
2024/02/25 01:35:38;;;;;;;6.75;2.15;;;;;;;13.15;49.74;93889.50;5066296;28;20303;-78
2024/02/25 01:38:04;;;;;;;6.20;1.95;;;;;;;13.14;49.61;93882.56;5066256;28;20087;-78
2024/02/25 01:40:29;;;;;;;7.07;1.90;;;;;;;13.17;49.33;93877.34;5066099;28;20052;-78
2024/02/25 01:43:11;;;;;;;3.22;1.77;;;;;;;13.20;49.44;93887.41;5066172;28;20028;-78
2024/02/25 01:45:37;;;;;;;6.20;2.00;;;;;;;13.21;49.60;93878.28;5066007;28;20017;-78
2024/02/25 01:48:04;;;;;;;5.75;2.28;;;;;;;13.24;49.60;93882.94;5066421;28;20024;-78
2024/02/25 01:50:31;;;;;;;5.43;1.65;;;;;;;13.27;49.75;93881.53;5066125;28;20048;-79
2024/02/25 01:52:57;;;;;;;5.32;1.73;;;;;;;13.23;49.72;93886.75;5065980;28;20024;-79
2024/02/25 01:55:24;;;;;;;4.30;2.00;;;;;;;13.25;49.74;93895.25;5065396;28;20040;-79
2024/02/25 01:57:49;;;;;;;6.78;1.80;;;;;;;13.28;49.50;93883.09;5064883;28;20320;-78
2024/02/25 02:00:17;;;;;;;2.80;1.30;;;;;;;13.27;49.06;93886.88;5064373;28;20032;-79
2024/02/25 02:02:42;;;;;;;4.55;1.80;;;;;;;13.25;48.64;93891.78;5065739;28;20215;-79
2024/02/25 02:05:09;;;;;;;2.88;1.70;;;;;;;13.17;48.41;93876.59;5065730;28;20319;-79
2024/02/25 02:07:35;;;;;;;8.57;2.22;;;;;;;13.17;48.92;93876.59;5065350;28;20354;-79
2024/02/25 02:10:00;;;;;;;5.45;1.65;;;;;;;13.21;48.87;93878.28;5066106;28;20084;-78
2024/02/25 02:12:25;;;;;;;3.05;1.60;;;;;;;13.18;49.13;93868.22;5064271;28;20122;-76
2024/02/25 02:14:51;;;;;;;4.28;2.03;;;;;;;13.20;49.09;93865.97;5064274;28;20036;-78
2024/02/25 02:17:16;;;;;;;3.83;1.75;;;;;;;13.19;49.18;93853.72;5065810;28;20080;-78
2024/02/25 02:19:46;;;;;;;4.50;1.88;;;;;;;13.19;48.98;93858.31;5065428;28;20335;-79
2024/02/25 02:22:12;;;;;;;3.95;1.80;;;;;;;13.18;49.00;93867.44;5065691;28;20035;-79
2024/02/25 02:24:37;;;;;;;4.22;1.75;;;;;;;13.16;49.09;93858.94;5065053;28;20025;-79
2024/02/25 02:27:03;;;;;;;3.63;1.80;;;;;;;13.17;49.21;93872.00;5065276;28;20092;-79
2024/02/25 02:29:28;;;;;;;4.43;2.55;;;;;;;13.17;48.80;93865.88;5065159;28;20052;-79
2024/02/25 02:31:56;;;;;;;4.97;1.70;;;;;;;13.06;49.30;93852.09;5065077;28;20025;-79
2024/02/25 02:34:22;;;;;;;2.88;1.50;;;;;;;13.12;49.27;93850.00;5065237;28;20264;-79
2024/02/25 02:36:49;;;;;;;6.00;1.60;;;;;;;13.13;49.41;93848.91;5065209;28;20070;-79
2024/02/25 02:39:14;;;;;;;4.70;1.67;;;;;;;13.18;49.32;93854.81;5064666;28;20039;-79
2024/02/25 02:41:40;;;;;;;3.45;1.50;;;;;;;13.02;49.72;93845.84;5064868;28;20033;-79
2024/02/25 02:44:06;;;;;;;4.68;1.73;;;;;;;12.99;50.10;93844.63;5064422;28;20056;-79
2024/02/25 02:46:37;;;;;;;3.35;2.00;;;;;;;13.02;50.31;93837.81;5064668;28;20056;-80
2024/02/25 02:49:03;;;;;;;2.57;1.63;;;;;;;13.04;50.18;93836.38;5064555;28;20105;-79
2024/02/25 02:51:28;;;;;;;3.67;1.55;;;;;;;13.04;49.92;93831.03;5064235;28;20024;-80
2024/02/25 02:53:53;;;;;;;3.22;1.65;;;;;;;13.07;49.79;93826.13;5064238;28;20065;-79
2024/02/25 02:56:32;;;;;;;4.65;1.50;;;;;;;13.01;50.28;93837.03;5064253;28;20021;-79
2024/02/25 02:58:57;;;;;;;4.88;1.73;;;;;;;13.04;49.98;93839.03;5062777;28;20021;-79
2024/02/25 03:01:23;;;;;;;3.03;1.48;;;;;;;13.08;49.98;93843.75;5064033;28;20050;-79
2024/02/25 03:03:49;;;;;;;5.03;1.83;;;;;;;13.12;49.43;93848.13;5063458;28;20124;-79
2024/02/25 03:06:16;;;;;;;7.00;1.80;;;;;;;13.11;49.53;93846.56;5063941;28;20084;-79
2024/02/25 03:08:42;;;;;;;6.13;2.05;;;;;;;13.09;49.61;93848.78;5064507;28;20060;-79
2024/02/25 03:11:07;;;;;;;6.45;2.75;;;;;;;13.03;49.59;93848.19;5064331;28;20029;-79
2024/02/25 03:13:33;;;;;;;5.85;1.88;;;;;;;13.03;49.78;93845.53;5063878;28;20031;-79
2024/02/25 03:15:58;;;;;;;4.88;2.10;;;;;;;13.10;49.95;93849.56;5063809;28;20266;-79
2024/02/25 03:18:24;;;;;;;8.05;1.80;;;;;;;13.18;49.71;93856.72;5063740;28;20016;-78
2024/02/25 03:20:49;;;;;;;3.67;1.77;;;;;;;13.19;49.68;93852.94;5062981;28;20028;-79
2024/02/25 03:23:15;;;;;;;3.75;1.70;;;;;;;13.12;49.83;93850.78;5064158;28;20013;-79
2024/02/25 03:25:40;;;;;;;3.80;1.88;;;;;;;13.18;50.06;93854.06;5063519;28;20104;-79
2024/02/25 03:28:05;;;;;;;3.25;1.95;;;;;;;13.14;50.17;93853.13;5063667;28;20024;-78
2024/02/25 03:30:31;;;;;;;5.78;1.58;;;;;;;13.16;49.91;93849.03;5063441;28;20278;-78
2024/02/25 03:33:01;;;;;;;4.78;1.52;;;;;;;13.12;49.65;93856.13;5063818;28;20032;-78
2024/02/25 03:35:30;;;;;;;4.28;1.48;;;;;;;13.03;49.42;93850.88;5063541;28;20031;-78
2024/02/25 03:37:55;;;;;;;6.22;1.25;;;;;;;12.97;49.19;93846.84;5063648;28;20025;-78
2024/02/25 03:40:24;;;;;;;3.08;1.20;;;;;;;12.97;49.54;93857.53;5063886;28;20048;-78
2024/02/25 03:42:49;;;;;;;2.92;1.35;;;;;;;12.98;49.75;93848.38;5063846;28;20083;-78
2024/02/25 03:45:15;;;;;;;4.22;1.83;;;;;;;12.96;51.34;93868.56;5063777;28;20033;-78
2024/02/25 03:47:41;;;;;;;2.85;1.70;;;;;;;12.87;52.29;93873.97;5063471;28;20032;-78
2024/02/25 03:50:10;;;;;;;5.10;2.08;;;;;;;12.78;52.85;93890.09;5063866;28;20017;-79
2024/02/25 03:52:37;;;;;;;4.20;1.75;;;;;;;12.60;53.63;93892.09;5063288;28;20070;-78
2024/02/25 03:55:03;;;;;;;5.22;2.15;;;;;;;12.49;54.43;93890.13;5063294;28;20040;-78
2024/02/25 03:57:28;;;;;;;6.97;2.85;;;;;;;12.41;55.44;93895.19;5063460;28;20084;-78
2024/02/25 03:59:53;;;;;;;6.30;2.70;;;;;;;12.31;56.40;93892.88;5063595;28;20032;-78
2024/02/25 04:02:19;;;;;;;7.43;2.53;;;;;;;12.23;57.13;93894.53;5063472;28;20331;-78
2024/02/25 04:04:46;;;;;;;8.18;3.47;;;;;;;12.12;57.61;93890.63;5062885;28;20031;-77
2024/02/25 04:07:12;;;;;;;8.95;3.03;;;;;;;12.00;57.91;93895.88;5063035;28;20315;-77
2024/02/25 04:09:38;;;;;;;7.47;3.13;;;;;;;11.93;58.63;93890.25;5063122;28;20044;-77
2024/02/25 04:12:03;;;;;;;7.55;3.17;;;;;;;11.89;59.07;93894.66;5062815;28;20021;-77
2024/02/25 04:14:30;;;;;;;7.95;3.42;;;;;;;11.83;59.68;93902.81;5062830;28;20023;-78
2024/02/25 04:16:55;;;;;;;6.55;3.00;;;;;;;11.83;60.05;93897.47;5062577;28;20055;-77
2024/02/25 04:19:21;;;;;;;8.98;3.45;;;;;;;11.82;60.46;93898.59;5062563;28;20021;-77
2024/02/25 04:21:46;;;;;;;7.50;3.13;;;;;;;11.79;60.77;93907.22;5063210;28;20062;-77
2024/02/25 04:24:11;;;;;;;6.70;3.20;;;;;;;11.82;60.92;93901.25;5062822;28;20149;-77
2024/02/25 04:26:37;;;;;;;8.60;3.78;;;;;;;11.84;61.26;93899.06;5062964;28;20367;-77
2024/02/25 04:29:02;;;;;;;6.95;3.22;;;;;;;11.86;61.55;93906.72;5062930;28;20020;-77
2024/02/25 04:31:28;;;;;;;8.25;3.58;;;;;;;11.89;61.98;93910.69;5062881;28;20029;-77
2024/02/25 04:33:53;;;;;;;11.32;3.28;;;;;;;11.93;63.17;93900.94;5063201;28;20024;-77
2024/02/25 04:36:18;;;;;;;6.53;3.38;;;;;;;11.89;64.07;93906.13;5063024;28;20021;-77
2024/02/25 04:38:44;;;;;;;9.13;3.35;;;;;;;11.87;65.64;93910.19;5063059;28;20271;-77
2024/02/25 04:41:09;;;;;;;6.03;3.58;;;;;;;11.88;65.87;93904.50;5063418;28;20489;-77
2024/02/25 04:43:36;;;;;;;7.60;3.45;;;;;;;11.79;65.82;93915.22;5062900;28;20088;-77
2024/02/25 04:46:01;;;;;;;5.63;3.13;;;;;;;11.56;65.98;93905.84;5062808;28;20315;-77
2024/02/25 04:48:27;;;;;;;8.60;3.60;;;;;;;11.28;67.03;93903.56;5062663;28;20055;-77
2024/02/25 04:50:55;;;;;;;10.40;3.22;;;;;;;11.02;67.74;93909.69;5062511;28;20337;-77
2024/02/25 04:53:21;;;;;;;10.52;3.67;;;;;;;10.86;68.13;93908.59;5062660;28;20220;-77
2024/02/25 04:55:47;;;;;;;8.75;3.40;;;;;;;10.80;68.89;93909.84;5063194;28;20025;-78
2024/02/25 04:58:13;;;;;;;8.60;3.33;;;;;;;10.78;69.31;93912.03;5063008;28;20027;-77
2024/02/25 05:00:38;;;;;;;5.93;3.25;;;;;;;10.75;69.47;93907.34;5062890;28;20323;-78
2024/02/25 05:03:05;;;;;;;7.38;3.15;;;;;;;10.75;69.85;93908.13;5062749;28;20028;-77
2024/02/25 05:05:30;;;;;;;7.50;3.33;;;;;;;10.78;71.18;93917.38;5062884;28;20032;-76
2024/02/25 05:07:56;;;;;;;6.60;3.28;;;;;;;10.70;72.07;93915.47;5063063;28;20027;-77
2024/02/25 05:10:22;;;;;;;8.05;3.80;;;;;;;10.79;72.39;93918.94;5062930;28;20268;-77
2024/02/25 05:12:48;;;;;;;12.27;3.72;;;;;;;10.90;72.50;93911.41;5063403;28;20032;-78
2024/02/25 05:15:14;;;;;;;10.57;4.05;;;;;;;10.98;72.62;93915.97;5063344;28;20048;-78
2024/02/25 05:17:40;;;;;;;6.35;3.55;;;;;;;11.04;72.40;93918.16;5062645;28;20223;-78
2024/02/25 05:20:06;;;;;;;15.57;4.10;;;;;;;11.13;72.28;93926.16;5062863;28;20021;-78
2024/02/25 05:22:32;;;;;;;12.48;4.15;;;;;;;11.19;72.01;93918.78;5062813;28;20020;-78
2024/02/25 05:24:58;;;;;;;7.75;3.53;;;;;;;11.24;72.00;93914.06;5063007;28;20021;-77
2024/02/25 05:27:28;;;;;;;9.48;4.40;;;;;;;11.29;71.30;93926.47;5062482;28;20021;-78
2024/02/25 05:29:55;;;;;;;10.18;4.57;;;;;;;11.34;70.12;93926.31;5062857;28;20227;-78
2024/02/25 05:32:20;;;;;;;9.00;4.18;;;;;;;11.33;70.11;93930.06;5064624;28;20266;-78
2024/02/25 05:34:46;;;;;;;11.90;4.68;;;;;;;11.35;69.82;93927.09;5066420;28;20058;-78
2024/02/25 05:37:15;;;;;;;8.75;4.45;;;;;;;11.29;70.20;93934.47;5065855;28;20115;-77
2024/02/25 05:39:40;;;;;;;7.13;4.32;;;;;;;11.34;70.61;93939.66;5065732;28;20111;-78
2024/02/25 05:42:06;;;;;;;8.25;4.38;;;;;;;11.38;70.95;93939.81;5065860;28;20342;-78
2024/02/25 05:44:31;;;;;;;10.95;4.72;;;;;;;11.41;70.95;93936.50;5066007;28;20044;-78
2024/02/25 05:46:57;;;;;;;6.82;4.45;;;;;;;11.44;71.59;93939.34;5065697;28;20020;-78
2024/02/25 05:49:22;;;;;;;8.05;4.40;;;;;;;11.51;71.74;93948.75;5065524;28;20100;-78
2024/02/25 05:51:47;;;;;;;15.35;6.55;;;;;;;11.49;71.44;93940.28;5064601;28;20032;-77
2024/02/25 05:54:13;;;;;;;14.50;4.70;;;;;;;11.51;70.43;93957.53;5065273;28;20045;-80
2024/02/25 05:56:38;;;;;;;8.85;4.20;;;;;;;11.45;69.38;93948.91;5065653;28;20029;-80
2024/02/25 05:59:04;;;;;;;6.40;3.60;;;;;;;11.35;68.86;93967.13;5065500;28;20021;-78
2024/02/25 06:01:33;;;;;;;4.75;3.17;;;;;;;11.20;68.70;93957.72;5065525;28;20334;-78
2024/02/25 06:04:00;;;;;;;9.65;3.72;;;;;;;11.14;69.79;93961.63;5065385;28;20025;-78
2024/02/25 06:06:26;;;;;;;6.38;3.60;;;;;;;11.11;70.65;93963.03;5065745;28;20020;-78
2024/02/25 06:08:52;;;;;;;8.13;3.40;;;;;;;10.96;71.28;93945.63;5065269;28;20062;-78
2024/02/25 06:11:17;;;;;;;8.70;3.88;;;;;;;10.89;71.60;93961.31;5065481;28;20021;-78
2024/02/25 06:13:42;;;;;;;8.80;4.00;;;;;;;10.80;72.86;93955.16;5064958;28;20021;-78
2024/02/25 06:16:08;;;;;;;10.98;4.68;;;;;;;10.76;73.89;93954.22;5064923;28;20021;-78
2024/02/25 06:18:33;;;;;;;11.18;4.10;;;;;;;10.71;74.49;93954.38;5065429;28;20020;-78
2024/02/25 06:20:58;;;;;;;9.98;3.53;;;;;;;10.70;75.60;93947.47;5065211;28;20024;-77
2024/02/25 06:23:24;;;;;;;8.13;4.40;;;;;;;10.70;76.00;93952.78;5065246;28;20266;-79
2024/02/25 06:25:49;;;;;;;8.05;3.85;;;;;;;10.69;76.17;93959.25;5064865;28;20020;-78
2024/02/25 06:28:15;;;;;;;7.22;3.42;;;;;;;10.75;76.02;93950.78;5065001;28;20037;-77
2024/02/25 06:30:40;;;;;;;8.48;3.72;;;;;;;10.64;76.37;93958.28;5063562;28;20037;-78
2024/02/25 06:33:05;;;;;;;9.77;3.58;;;;;;;10.68;76.12;93958.44;5064846;28;20048;-79
2024/02/25 06:35:31;;;;;;;9.50;4.13;;;;;;;10.60;75.93;93957.34;5064680;28;20063;-77
2024/02/25 06:37:58;;;;;;;6.25;3.80;;;;;;;10.60;76.58;93962.66;5064754;28;20025;-77
2024/02/25 06:40:24;;;;;;;7.15;3.35;;;;;;;10.62;76.18;93957.00;5064749;28;20354;-77
2024/02/25 06:42:49;;;;;;;5.72;3.10;;;;;;;10.69;76.41;93970.69;5064243;28;20024;-77
2024/02/25 06:45:15;;;;;;;7.43;4.18;;;;;;;10.76;76.46;93962.22;5064580;28;20020;-77
2024/02/25 06:47:40;;;;;;;8.32;4.28;;;;;;;10.88;76.85;93972.28;5064183;28;20048;-77
2024/02/25 06:50:06;;;;;;;7.07;3.83;;;;;;;11.03;76.55;93977.94;5064432;28;20023;-77
2024/02/25 06:52:32;;;;;;;9.35;4.57;;;;;;;11.19;77.52;93975.63;5064205;28;20025;-77
2024/02/25 06:54:57;;;;;;;8.02;3.70;;;;;;;11.33;77.64;93977.31;5064145;28;20049;-77
2024/02/25 06:57:22;;;;;;;9.25;4.60;;;;;;;11.44;77.51;93979.38;5064421;28;20044;-76
2024/02/25 06:59:48;;;;;;;15.77;6.57;;;;;;;11.53;77.42;93978.56;5064248;28;20032;-77
2024/02/25 07:02:13;;;;;;;13.85;6.97;;;;;;;11.63;77.27;93976.34;5064338;28;20017;-77
2024/02/25 07:04:39;;;;;;;11.85;6.10;;;;;;;11.73;76.80;93977.91;5064021;28;20039;-77
2024/02/25 07:07:04;;;;;;;10.65;5.63;;;;;;;11.83;76.50;93988.28;5064245;28;20027;-75
2024/02/25 07:09:30;;;;;;;12.23;6.28;;;;;;;11.84;76.25;93983.72;5063880;28;20048;-76
2024/02/25 07:11:55;;;;;;;12.98;6.00;;;;;;;11.88;75.54;93978.53;5063872;28;20320;-78
2024/02/25 07:14:21;;;;;;;15.07;6.25;;;;;;;11.92;75.40;93974.91;5063932;28;20025;-75
2024/02/25 07:16:46;;;;;;;14.10;5.57;;;;;;;11.94;75.18;93978.06;5062542;28;20030;-76
2024/02/25 07:19:12;;;;;;;14.70;5.78;;;;;;;12.00;75.20;93978.69;5063199;28;20025;-75
2024/02/25 07:21:37;;;;;;;19.23;5.95;;;;;;;12.03;75.34;93981.50;5063803;28;20028;-75
2024/02/25 07:24:03;;;;;;;13.00;5.25;;;;;;;12.07;75.63;93970.97;5063809;28;20025;-76
2024/02/25 07:26:28;;;;;;;9.15;4.47;;;;;;;12.12;75.82;93968.09;5063917;28;20032;-77
2024/02/25 07:28:54;;;;;;;12.48;5.53;;;;;;;12.13;75.42;93966.22;5063954;28;20316;-76
2024/02/25 07:31:19;;;;;;;9.63;4.57;;;;;;;12.13;75.54;93969.69;5063525;28;20207;-76
2024/02/25 07:33:46;;;;;;;7.50;4.35;;;;;;;12.16;75.51;93958.34;5063537;28;20039;-75
2024/02/25 07:36:13;;;;;;;7.90;4.55;;;;;;;12.22;74.85;93965.09;5063296;28;20363;-76
2024/02/25 07:38:39;;;;;;;8.93;4.15;;;;;;;12.20;74.88;93959.28;5063507;28;20017;-75
2024/02/25 07:41:06;;;;;;;13.23;4.60;;;;;;;12.23;74.32;93955.19;5063563;28;20027;-76
2024/02/25 07:43:33;;;;;;;9.50;4.55;;;;;;;12.29;73.89;93959.22;5063378;28;20016;-76
2024/02/25 07:45:58;;;;;;;8.30;4.68;;;;;;;12.34;74.01;93951.06;5063379;28;20320;-76
2024/02/25 07:48:24;;;;;;;8.20;4.15;;;;;;;12.40;74.42;93949.00;5063310;28;20017;-76
2024/02/25 07:50:50;;;;;;;8.93;4.43;;;;;;;12.44;74.47;93945.34;5063389;28;20019;-75
2024/02/25 07:53:15;;;;;;;8.38;4.13;;;;;;;12.47;74.50;93946.59;5063248;28;20024;-75
2024/02/25 07:55:40;;;;;;;10.15;4.32;;;;;;;12.49;75.08;93952.38;5062094;28;20037;-75
2024/02/25 07:58:06;;;;;;;10.35;4.65;;;;;;;12.51;74.25;93946.72;5063217;28;20333;-75
2024/02/25 08:00:33;;;;;;;7.63;4.20;;;;;;;12.53;74.29;93945.28;5062954;28;20017;-76
2024/02/25 08:03:02;;;;;;;9.32;4.65;;;;;;;12.54;73.38;93941.53;5063161;28;20099;-75
2024/02/25 08:05:27;;;;;;;11.70;4.80;;;;;;;12.57;73.22;93946.22;5063055;28;20241;-76
2024/02/25 08:07:53;;;;;;;8.80;5.43;;;;;;;12.58;73.69;93939.78;5063053;28;20017;-75
2024/02/25 08:10:19;;;;;;;7.45;4.70;;;;;;;12.62;73.91;93932.66;5063036;28;20017;-75
2024/02/25 08:12:46;;;;;;;10.43;5.40;;;;;;;12.68;74.10;93935.16;5063051;28;20024;-75
2024/02/25 08:15:12;;;;;;;32.92;14.55;;;;;;;12.69;74.40;93934.81;5062960;28;20200;-75
2024/02/25 08:17:37;;;;;;;29.45;12.48;;;;;;;12.71;73.88;93929.16;5062766;28;20082;-75
2024/02/25 08:20:06;;;;;;;30.10;12.23;;;;;;;12.76;74.46;93928.97;5062701;28;20021;-76
2024/02/25 08:22:32;;;;;;;22.85;12.88;;;;;;;12.82;74.87;93924.97;5062703;28;20055;-75
2024/02/25 08:24:59;;;;;;;19.65;11.25;;;;;;;12.84;74.49;93920.09;5062928;28;20037;-75
2024/02/25 08:27:28;;;;;;;19.38;8.93;;;;;;;12.82;74.97;93923.13;5062808;28;20080;-75
2024/02/25 08:29:54;;;;;;;15.63;7.18;;;;;;;12.88;74.65;93923.69;5062723;28;20020;-76
2024/02/25 08:32:20;;;;;;;8.25;5.18;;;;;;;12.93;74.24;93926.19;5062760;28;20017;-76
2024/02/25 08:34:45;;;;;;;10.82;4.95;;;;;;;12.96;73.31;93922.06;5062955;28;20017;-76
2024/02/25 08:37:11;;;;;;;10.27;5.43;;;;;;;12.98;73.12;93912.59;5062362;28;20035;-76
2024/02/25 08:39:36;;;;;;;12.30;5.50;;;;;;;13.01;73.08;93906.59;5062786;28;20025;-76
2024/02/25 08:42:02;;;;;;;13.65;6.57;;;;;;;13.05;72.35;93912.88;5062618;28;20328;-75
2024/02/25 08:44:27;;;;;;;23.17;11.73;;;;;;;13.07;72.43;93920.56;5062311;28;20028;-76
2024/02/25 08:46:53;;;;;;;13.18;8.20;;;;;;;13.08;72.25;93918.69;5062637;28;20029;-76
2024/02/25 08:49:18;;;;;;;15.98;6.85;;;;;;;13.15;71.79;93919.72;5063079;28;20090;-76
2024/02/25 08:51:43;;;;;;;8.70;5.05;;;;;;;13.18;71.42;93920.97;5062763;28;20231;-76
2024/02/25 08:54:09;;;;;;;14.82;5.10;;;;;;;13.26;71.16;93912.06;5062431;28;20059;-76
2024/02/25 08:56:34;;;;;;;13.05;6.40;;;;;;;13.31;71.10;93913.78;5062348;28;20215;-76
2024/02/25 08:59:00;;;;;;;13.65;6.78;;;;;;;13.36;71.00;93914.38;5062656;28;20033;-76
2024/02/25 09:01:27;;;;;;;14.80;6.32;;;;;;;13.37;70.69;93901.75;5062569;28;20056;-76
2024/02/25 09:03:52;;;;;;;9.90;5.05;;;;;;;13.40;70.60;93901.13;5062519;28;20033;-76
2024/02/25 09:06:18;;;;;;;12.88;7.18;;;;;;;13.43;70.63;93895.91;5064221;28;20027;-76
2024/02/25 09:08:43;;;;;;;23.52;12.02;;;;;;;13.51;70.43;93896.13;5066137;28;20070;-76
2024/02/25 09:11:08;;;;;;;20.15;10.77;;;;;;;13.54;70.31;93901.63;5066504;28;20036;-76
2024/02/25 09:13:34;;;;;;;19.98;10.48;;;;;;;13.60;70.07;93899.50;5066210;28;20017;-76
2024/02/25 09:15:59;;;;;;;27.30;9.75;;;;;;;13.66;69.70;93892.84;5066122;28;20028;-76
2024/02/25 09:18:25;;;;;;;13.82;6.93;;;;;;;13.69;69.84;93902.88;5066002;28;20044;-76
2024/02/25 09:20:50;;;;;;;17.42;5.82;;;;;;;13.73;69.37;93900.31;5066005;28;20087;-76
2024/02/25 09:23:15;;;;;;;15.13;5.63;;;;;;;13.74;69.53;93894.63;5066210;28;20088;-76
2024/02/25 09:25:41;;;;;;;9.60;5.53;;;;;;;13.78;69.15;93900.09;5065810;28;20330;-76
2024/02/25 09:28:08;;;;;;;10.57;5.00;;;;;;;13.82;68.63;93896.44;5065660;28;20346;-76
2024/02/25 09:30:33;;;;;;;12.60;5.18;;;;;;;13.88;68.31;93893.53;5065973;28;20051;-75
2024/02/25 09:32:58;;;;;;;9.55;5.07;;;;;;;13.93;68.03;93891.44;5065822;28;20052;-76
2024/02/25 09:35:24;;;;;;;15.68;5.35;;;;;;;13.98;68.03;93888.53;5065673;28;20023;-76
2024/02/25 09:37:49;;;;;;;9.05;5.20;;;;;;;14.02;67.77;93894.81;5065767;28;20025;-76
2024/02/25 09:40:15;;;;;;;13.88;5.22;;;;;;;14.03;67.40;93890.22;5065712;28;20087;-76
2024/02/25 09:42:48;;;;;;;10.70;4.53;;;;;;;13.88;67.13;93894.34;5065440;28;20086;-76
2024/02/25 09:45:23;;;;;;;10.60;4.30;;;;;;;13.82;67.44;93885.72;5065479;28;20315;-76
2024/02/25 09:47:52;;;;;;;10.20;4.30;;;;;;;13.94;66.89;93882.28;5065495;28;20021;-76
2024/02/25 09:50:19;;;;;;;7.45;3.70;;;;;;;14.03;66.89;93884.84;5065876;28;20079;-76
2024/02/25 09:52:48;;;;;;;7.97;3.90;;;;;;;14.10;65.31;93889.66;5065637;28;20025;-76
2024/02/25 09:55:14;;;;;;;7.90;4.10;;;;;;;14.16;65.16;93889.09;5065730;28;20048;-76
2024/02/25 09:57:41;;;;;;;10.25;5.03;;;;;;;14.18;64.61;93892.22;5065877;28;20029;-76
2024/02/25 10:00:08;;;;;;;9.90;3.42;;;;;;;14.19;64.77;93872.34;5065400;28;20063;-76
2024/02/25 10:02:35;;;;;;;8.45;3.75;;;;;;;14.27;65.54;93878.72;5065460;28;20025;-75
2024/02/25 10:05:03;;;;;;;11.23;4.45;;;;;;;14.30;63.50;93874.59;5065731;28;20227;-76
2024/02/25 10:07:29;;;;;;;8.18;3.28;;;;;;;14.28;61.49;93879.50;5065267;28;20024;-76
2024/02/25 10:09:56;;;;;;;5.40;3.45;;;;;;;14.23;61.44;93873.25;5065457;28;20032;-76
2024/02/25 10:12:22;;;;;;;6.45;3.40;;;;;;;14.15;61.65;93859.97;5065428;28;20119;-76
2024/02/25 10:14:54;;;;;;;6.65;3.67;;;;;;;13.92;62.91;93864.97;5065214;28;20301;-76
2024/02/25 10:17:23;;;;;;;9.48;3.90;;;;;;;13.99;64.37;93857.16;5064659;28;20031;-76
2024/02/25 10:19:53;;;;;;;8.73;3.97;;;;;;;14.08;64.86;93847.09;5065682;28;20044;-76
2024/02/25 10:22:19;;;;;;;15.70;3.80;;;;;;;14.17;65.19;93855.81;5065256;28;20106;-76
2024/02/25 10:24:47;;;;;;;7.30;3.88;;;;;;;14.20;64.61;93852.47;5065525;28;20021;-76
2024/02/25 10:27:13;;;;;;;8.60;3.70;;;;;;;14.24;63.45;93852.56;5065105;28;20045;-77
2024/02/25 10:29:52;;;;;;;9.43;3.83;;;;;;;14.34;63.91;93851.34;5065361;28;20230;-76
2024/02/25 10:32:23;;;;;;;7.50;3.88;;;;;;;14.35;63.69;93847.53;5064865;28;20146;-76
2024/02/25 10:34:50;;;;;;;8.35;3.67;;;;;;;14.33;62.76;93839.84;5065175;28;20028;-77
2024/02/25 10:37:18;;;;;;;9.95;4.07;;;;;;;14.32;63.64;93838.28;5063813;28;20033;-77
2024/02/25 10:39:44;;;;;;;7.70;4.30;;;;;;;14.20;63.77;93833.69;5065168;28;20032;-77
2024/02/25 10:42:13;;;;;;;6.55;3.67;;;;;;;14.16;64.17;93830.13;5064459;28;20028;-76
2024/02/25 10:44:39;;;;;;;11.05;4.82;;;;;;;14.07;64.95;93831.38;5064573;28;20067;-77
2024/02/25 10:47:08;;;;;;;9.95;5.80;;;;;;;14.10;66.00;93834.16;5064897;28;20021;-77
2024/02/25 10:49:35;;;;;;;12.23;5.18;;;;;;;14.22;67.50;93831.47;5064558;28;20223;-76
2024/02/25 10:52:02;;;;;;;13.88;6.22;;;;;;;14.27;67.52;93825.13;5064607;28;20095;-76
2024/02/25 10:54:28;;;;;;;8.43;4.78;;;;;;;14.24;67.08;93821.19;5064301;28;20048;-76
2024/02/25 10:56:54;;;;;;;8.50;4.45;;;;;;;14.37;68.11;93810.44;5064239;28;20025;-77
2024/02/25 10:59:19;;;;;;;7.30;4.00;;;;;;;14.48;67.86;93808.09;5064314;28;20060;-76
2024/02/25 11:01:45;;;;;;;9.98;4.78;;;;;;;14.53;66.93;93811.34;5064490;28;20028;-77
2024/02/25 11:04:10;;;;;;;7.70;4.20;;;;;;;14.58;65.84;93805.75;5064266;28;20029;-77
2024/02/25 11:06:38;;;;;;;8.52;5.60;;;;;;;14.61;65.64;93791.69;5063208;28;20017;-76
2024/02/25 11:09:12;;;;;;;10.88;6.50;;;;;;;14.62;65.87;93793.22;5064244;28;20016;-76
2024/02/25 11:11:38;;;;;;;12.07;4.93;;;;;;;14.66;65.58;93790.66;5064033;28;20067;-76
2024/02/25 11:14:18;;;;;;;9.52;5.70;;;;;;;14.66;65.66;93796.00;5063032;28;20062;-76
2024/02/25 11:16:47;;;;;;;10.60;5.43;;;;;;;14.68;66.24;93801.81;5064201;28;20041;-76
2024/02/25 11:19:20;;;;;;;15.27;7.25;;;;;;;14.67;66.34;93794.09;5064445;28;20035;-76
2024/02/25 11:21:53;;;;;;;10.82;6.88;;;;;;;14.67;66.25;93794.09;5064700;28;20319;-76
2024/02/25 11:24:49;;;;;;;14.50;6.10;;;;;;;14.66;66.17;93792.56;5064105;28;20062;-76
2024/02/25 11:27:17;;;;;;;7.03;5.03;;;;;;;14.66;66.26;93787.19;5063910;28;20028;-76